Time;durP1;ratioP1;P1;durP2;ratioP2;P2;SDS_P1;SDS_P2;PMS_P1;PMS_P2;Temp;Humidity;BMP_temperature;BMP_pressure;BME280_temperature;BME280_humidity;BME280_pressure;Samples;Min_cycle;Max_cycle;Signal;HPM_P1;HPM_P2
2023/06/25 00:01:53;;;;;;;5.55;3.40;;;;;;;;;;6275845;28;19912;-70
2023/06/25 00:04:53;;;;;;;3.90;3.60;;;;;;;;;;6274477;28;20025;-69
2023/06/25 00:07:54;;;;;;;5.00;4.23;;;;;;;;;;6276570;28;20244;-70
2023/06/25 00:10:54;;;;;;;4.43;4.00;;;;;;;;;;6276157;28;20593;-71
2023/06/25 00:13:55;;;;;;;5.43;3.43;;;;;;;;;;6277532;28;20119;-71
2023/06/25 00:16:57;;;;;;;4.67;4.20;;;;;;;;;;6271781;28;20111;-69
2023/06/25 00:19:57;;;;;;;4.60;4.03;;;;;;;;;;6279669;28;20286;-69
2023/06/25 00:22:58;;;;;;;4.43;3.77;;;;;;;;;;6278620;28;20458;-70
2023/06/25 00:25:58;;;;;;;6.20;4.20;;;;;;;;;;6283077;28;20427;-70
2023/06/25 00:28:58;;;;;;;4.50;4.03;;;;;;;;;;6281535;28;20017;-70
2023/06/25 00:31:59;;;;;;;4.67;4.07;;;;;;;;;;6284135;28;20117;-70
2023/06/25 00:35:01;;;;;;;7.90;4.10;;;;;;;;;;6278986;28;20089;-70
2023/06/25 00:38:02;;;;;;;4.55;4.13;;;;;;;;;;6274989;28;20351;-71
2023/06/25 00:41:02;;;;;;;5.53;3.53;;;;;;;;;;6275984;28;20021;-70
2023/06/25 00:44:05;;;;;;;4.22;3.53;;;;;;;;;;6280175;28;20488;-69
2023/06/25 00:47:12;;;;;;;4.28;3.88;;;;;;;;;;6273152;28;20231;-68
2023/06/25 00:50:12;;;;;;;4.05;3.58;;;;;;;;;;6277563;28;20039;-71
2023/06/25 00:53:12;;;;;;;5.70;4.40;;;;;;;;;;6273664;28;20235;-72
2023/06/25 00:56:15;;;;;;;4.88;4.47;;;;;;;;;;6274959;28;20020;-70
2023/06/25 00:59:16;;;;;;;4.70;4.15;;;;;;;;;;6274895;28;20020;-70
2023/06/25 01:02:16;;;;;;;;;;;;;;;;;;6274847;28;20172;-70
2023/06/25 01:05:28;;;;;;;4.43;3.67;;;;;;;;;;6274851;28;20350;-69
2023/06/25 01:08:29;;;;;;;3.80;3.45;;;;;;;;;;6278505;28;20035;-70
2023/06/25 01:11:29;;;;;;;5.97;4.38;;;;;;;;;;6277220;28;20466;-71
2023/06/25 01:14:33;;;;;;;5.50;4.70;;;;;;;;;;6275157;28;20075;-69
2023/06/25 01:17:33;;;;;;;4.18;3.78;;;;;;;;;;6274808;28;20032;-70
2023/06/25 01:20:38;;;;;;;4.47;3.93;;;;;;;;;;6278775;28;20497;-72
2023/06/25 01:23:38;;;;;;;5.30;4.72;;;;;;;;;;6278176;28;20153;-71
2023/06/25 01:26:38;;;;;;;5.27;4.33;;;;;;;;;;6273300;28;20042;-70
2023/06/25 01:29:39;;;;;;;6.03;4.70;;;;;;;;;;6276693;28;20104;-70
2023/06/25 01:32:41;;;;;;;3.87;3.57;;;;;;;;;;6266232;28;20289;-70
2023/06/25 01:35:42;;;;;;;5.50;3.80;;;;;;;;;;6273735;28;20028;-70
2023/06/25 01:38:42;;;;;;;4.45;4.05;;;;;;;;;;6276662;28;20082;-69
2023/06/25 01:41:46;;;;;;;4.90;4.37;;;;;;;;;;6280519;28;20040;-68
2023/06/25 01:44:47;;;;;;;4.50;4.10;;;;;;;;;;6279876;28;20169;-69
2023/06/25 01:47:48;;;;;;;4.50;4.03;;;;;;;;;;6282062;28;20252;-69
2023/06/25 01:50:49;;;;;;;6.03;4.78;;;;;;;;;;6276571;28;20031;-69
2023/06/25 01:53:49;;;;;;;5.10;4.43;;;;;;;;;;6276450;28;20043;-69
2023/06/25 01:56:49;;;;;;;4.10;3.70;;;;;;;;;;6275288;28;20451;-70
2023/06/25 01:59:50;;;;;;;5.03;4.13;;;;;;;;;;6274981;28;20470;-70
2023/06/25 02:02:50;;;;;;;5.07;4.20;;;;;;;;;;6273409;28;20059;-73
2023/06/25 02:05:50;;;;;;;6.23;4.40;;;;;;;;;;6276485;28;20025;-70
2023/06/25 02:08:51;;;;;;;4.27;3.83;;;;;;;;;;6273912;28;20070;-71
2023/06/25 02:11:51;;;;;;;4.63;4.10;;;;;;;;;;6281449;28;20085;-69
2023/06/25 02:14:51;;;;;;;4.30;3.90;;;;;;;;;;6280198;28;20433;-69
2023/06/25 02:17:52;;;;;;;5.10;4.60;;;;;;;;;;6278543;28;20151;-70
2023/06/25 02:20:52;;;;;;;4.93;4.53;;;;;;;;;;6278183;28;20013;-69
2023/06/25 02:23:52;;;;;;;4.70;4.27;;;;;;;;;;6273969;28;20013;-69
2023/06/25 02:26:53;;;;;;;6.07;4.10;;;;;;;;;;6277846;28;20441;-68
2023/06/25 02:29:53;;;;;;;5.15;4.60;;;;;;;;;;6282829;28;20029;-70
2023/06/25 02:32:53;;;;;;;4.70;4.30;;;;;;;;;;6284142;28;21378;-70
2023/06/25 02:35:57;;;;;;;4.83;3.93;;;;;;;;;;6281696;28;20089;-70
2023/06/25 02:39:00;;;;;;;5.03;4.00;;;;;;;;;;6280969;28;20362;-69
2023/06/25 02:42:00;;;;;;;4.22;3.83;;;;;;;;;;6283332;28;20032;-69
2023/06/25 02:45:01;;;;;;;4.97;4.20;;;;;;;;;;6282105;28;20032;-74
2023/06/25 02:48:02;;;;;;;3.88;3.58;;;;;;;;;;6282639;28;20155;-71
2023/06/25 02:51:02;;;;;;;4.22;3.83;;;;;;;;;;6281879;28;20020;-69
2023/06/25 02:54:02;;;;;;;6.20;4.10;;;;;;;;;;6272985;28;20437;-70
2023/06/25 02:57:03;;;;;;;4.90;4.50;;;;;;;;;;6281585;28;20032;-70
2023/06/25 03:00:06;;;;;;;5.30;4.80;;;;;;;;;;6277712;28;20075;-71
2023/06/25 03:03:07;;;;;;;4.97;4.47;;;;;;;;;;6282217;28;20728;-71
2023/06/25 03:06:07;;;;;;;5.13;4.43;;;;;;;;;;6277664;28;20017;-69
2023/06/25 03:09:08;;;;;;;5.23;4.73;;;;;;;;;;6280523;28;20017;-70
2023/06/25 03:12:09;;;;;;;4.47;4.03;;;;;;;;;;6281105;28;20024;-69
2023/06/25 03:15:09;;;;;;;4.55;4.05;;;;;;;;;;6282059;28;20487;-70
2023/06/25 03:18:10;;;;;;;5.70;4.80;;;;;;;;;;6278850;28;20032;-69
2023/06/25 03:21:10;;;;;;;4.57;4.18;;;;;;;;;;6280982;28;20036;-70
2023/06/25 03:24:11;;;;;;;5.10;4.60;;;;;;;;;;6278380;28;20028;-69
2023/06/25 03:27:11;;;;;;;4.80;4.40;;;;;;;;;;6283148;28;20035;-69
2023/06/25 03:30:11;;;;;;;4.30;3.90;;;;;;;;;;6279418;28;20116;-69
2023/06/25 03:33:11;;;;;;;4.93;4.33;;;;;;;;;;6281021;28;20032;-69
2023/06/25 03:36:12;;;;;;;5.90;4.73;;;;;;;;;;6281963;28;20021;-71
2023/06/25 03:39:12;;;;;;;4.75;4.15;;;;;;;;;;6278669;28;20339;-69
2023/06/25 03:42:13;;;;;;;5.20;4.70;;;;;;;;;;6277392;28;20165;-70
2023/06/25 03:45:15;;;;;;;7.27;4.83;;;;;;;;;;6280787;28;20016;-70
2023/06/25 03:48:15;;;;;;;5.30;4.40;;;;;;;;;;6278481;28;20122;-69
2023/06/25 03:51:16;;;;;;;5.30;4.80;;;;;;;;;;6281551;28;20044;-69
2023/06/25 03:54:16;;;;;;;5.00;4.53;;;;;;;;;;6274901;28;20036;-69
2023/06/25 03:57:16;;;;;;;5.60;4.53;;;;;;;;;;6284853;28;20369;-69
2023/06/25 04:00:17;;;;;;;4.47;4.07;;;;;;;;;;6277362;28;20282;-71
2023/06/25 04:03:18;;;;;;;5.13;4.63;;;;;;;;;;6279242;28;20044;-69
2023/06/25 04:06:18;;;;;;;4.85;4.30;;;;;;;;;;6274782;28;20173;-68
2023/06/25 04:09:19;;;;;;;5.00;4.43;;;;;;;;;;6275090;28;20025;-71
2023/06/25 04:12:19;;;;;;;6.97;4.53;;;;;;;;;;6255626;28;20615;-70
2023/06/25 04:15:19;;;;;;;6.50;5.17;;;;;;;;;;6276936;28;20382;-70
2023/06/25 04:18:20;;;;;;;5.53;4.67;;;;;;;;;;6278785;28;20355;-70
2023/06/25 04:21:20;;;;;;;5.03;4.53;;;;;;;;;;6276524;28;20207;-69
2023/06/25 04:24:20;;;;;;;8.70;5.13;;;;;;;;;;6269606;28;20025;-71
2023/06/25 04:27:21;;;;;;;6.18;5.15;;;;;;;;;;6274276;28;20060;-72
2023/06/25 04:30:22;;;;;;;6.00;4.85;;;;;;;;;;6273239;28;20032;-70
2023/06/25 04:33:23;;;;;;;6.03;4.85;;;;;;;;;;6278626;28;20016;-70
2023/06/25 04:36:24;;;;;;;5.47;4.95;;;;;;;;;;6274582;28;20024;-70
2023/06/25 04:39:24;;;;;;;5.53;4.93;;;;;;;;;;6277570;28;20457;-70
2023/06/25 04:42:26;;;;;;;6.10;4.87;;;;;;;;;;6276963;28;20024;-72
2023/06/25 04:45:26;;;;;;;5.47;4.95;;;;;;;;;;6273521;28;20278;-70
2023/06/25 04:48:26;;;;;;;4.57;4.18;;;;;;;;;;6273527;28;20446;-69
2023/06/25 04:51:27;;;;;;;7.40;4.90;;;;;;;;;;6277212;28;20115;-71
2023/06/25 04:54:30;;;;;;;5.03;4.57;;;;;;;;;;6273247;28;20213;-70
2023/06/25 04:57:30;;;;;;;5.47;4.63;;;;;;;;;;5920298;28;10000514;-70
2023/06/25 05:00:31;;;;;;;4.90;4.47;;;;;;;;;;6278419;28;20020;-69
2023/06/25 05:03:31;;;;;;;;;;;;;;;;;;6267863;28;20147;-69
2023/06/25 05:06:31;;;;;;;5.20;4.25;;;;;;;;;;6269910;28;19912;-69
2023/06/25 05:09:32;;;;;;;;;;;;;;;;;;6274289;28;20380;-71
2023/06/25 05:12:32;;;;;;;4.78;3.80;;;;;;;;;;6275411;28;20258;-69
2023/06/25 05:15:32;;;;;;;;;;;;;;;;;;6275433;28;20020;-68
2023/06/25 05:18:32;;;;;;;4.90;4.30;;;;;;;;;;6277745;28;19921;-69
2023/06/25 05:21:33;;;;;;;;;;;;;;;;;;6276581;28;20020;-68
2023/06/25 05:24:33;;;;;;;5.35;4.85;;;;;;;;;;6276247;28;19952;-71
2023/06/25 05:27:33;;;;;;;;;;;;;;;;;;6292664;28;20047;-69
2023/06/25 05:30:34;;;;;;;4.43;3.58;;;;;;;;;;6274602;28;20013;-71
2023/06/25 05:33:35;;;;;;;;;;;;;;;;;;6270498;28;20028;-69
2023/06/25 05:36:35;;;;;;;6.25;4.50;;;;;;;;;;6275539;28;19913;-70
2023/06/25 05:39:35;;;;;;;;;;;;;;;;;;6279826;28;20032;-69
2023/06/25 05:42:36;;;;;;;6.07;4.88;;;;;;;;;;6275195;28;19912;-69
2023/06/25 05:45:36;;;;;;;;;;;;;;;;;;6277608;28;20392;-70
2023/06/25 05:48:40;;;;;;;4.73;4.27;;;;;;;;;;6272277;28;19912;-70
2023/06/25 05:51:40;;;;;;;6.13;5.47;;;;;;;;;;6272974;28;20558;-69
2023/06/25 05:54:41;;;;;;;;;;;;;;;;;;6277989;28;20044;-69
2023/06/25 05:57:41;;;;;;;5.47;4.97;;;;;;;;;;6273542;28;19979;-73
2023/06/25 06:00:41;;;;;;;;;;;;;;;;;;6274169;28;20062;-70
2023/06/25 06:03:42;;;;;;;5.43;4.88;;;;;;;;;;6276577;28;20047;-70
2023/06/25 06:06:42;;;;;;;;;;;;;;;;;;6281864;28;20036;-71
2023/06/25 06:09:42;;;;;;;4.72;4.32;;;;;;;;;;6288259;28;19944;-70
2023/06/25 06:12:42;;;;;;;;;;;;;;;;;;6279995;28;21580;-71
2023/06/25 06:15:42;;;;;;;5.30;4.80;;;;;;;;;;6288232;28;20385;-70
2023/06/25 06:18:43;;;;;;;;;;;;;;;;;;6289171;28;20711;-70
2023/06/25 06:21:43;;;;;;;4.75;4.35;;;;;;;;;;6285111;28;19950;-70
2023/06/25 06:24:43;;;;;;;;;;;;;;;;;;6286342;28;20473;-69
2023/06/25 06:27:44;;;;;;;6.40;4.93;;;;;;;;;;6287077;28;19916;-71
2023/06/25 06:30:44;;;;;;;;;;;;;;;;;;6281158;28;20086;-71
2023/06/25 06:33:44;;;;;;;5.20;4.57;;;;;;;;;;6286322;28;19977;-70
2023/06/25 06:36:45;;;;;;;;;;;;;;;;;;6284474;28;20135;-71
2023/06/25 06:39:48;;;;;;;5.10;4.60;;;;;;;;;;6279930;28;20373;-73
2023/06/25 06:42:48;;;;;;;5.97;5.40;;;;;;;;;;6280607;28;20204;-71
2023/06/25 06:45:48;;;;;;;;;;;;;;;;;;6288960;28;20112;-71
2023/06/25 06:48:49;;;;;;;5.37;4.90;;;;;;;;;;6279017;28;19912;-71
2023/06/25 06:51:49;;;;;;;5.95;5.45;;;;;;;;;;6278954;28;20551;-69
2023/06/25 06:54:51;;;;;;;6.25;5.63;;;;;;;;;;6268738;28;20209;-70
2023/06/25 06:57:51;;;;;;;7.07;5.82;;;;;;;;;;6278247;28;20547;-70
2023/06/25 07:00:51;;;;;;;6.30;5.32;;;;;;;;;;6279854;28;20355;-69
2023/06/25 07:03:52;;;;;;;6.15;5.55;;;;;;;;;;6278922;28;20024;-72
2023/06/25 07:06:52;;;;;;;6.13;5.53;;;;;;;;;;6285381;28;20111;-71
2023/06/25 07:09:55;;;;;;;6.85;5.03;;;;;;;;;;6284234;28;20027;-70
2023/06/25 07:12:56;;;;;;;5.47;5.00;;;;;;;;;;6286043;28;20028;-71
2023/06/25 07:15:56;;;;;;;7.10;5.63;;;;;;;;;;6278551;28;20450;-73
2023/06/25 07:18:56;;;;;;;7.25;5.32;;;;;;;;;;6280927;28;20108;-71
2023/06/25 07:21:57;;;;;;;9.83;6.27;;;;;;;;;;6283096;28;20065;-73
2023/06/25 07:24:57;;;;;;;5.78;5.18;;;;;;;;;;6273203;28;20266;-70
2023/06/25 07:27:57;;;;;;;5.63;5.13;;;;;;;;;;6278842;28;20137;-70
2023/06/25 07:30:58;;;;;;;5.80;5.30;;;;;;;;;;6281249;28;20028;-70
2023/06/25 07:33:58;;;;;;;6.43;5.47;;;;;;;;;;6278126;28;20028;-70
2023/06/25 07:36:58;;;;;;;6.57;5.60;;;;;;;;;;6255003;28;20047;-72
2023/06/25 07:39:59;;;;;;;6.32;5.70;;;;;;;;;;6266567;28;20041;-71
2023/06/25 07:42:59;;;;;;;6.30;5.70;;;;;;;;;;6254871;28;20142;-70
2023/06/25 07:45:59;;;;;;;6.15;5.55;;;;;;;;;;6249109;28;20089;-70
2023/06/25 07:49:00;;;;;;;5.45;4.95;;;;;;;;;;6248904;28;20033;-72
2023/06/25 07:52:00;;;;;;;5.55;5.05;;;;;;;;;;6256849;28;20397;-72
2023/06/25 07:55:00;;;;;;;5.22;4.82;;;;;;;;;;6260983;28;20036;-71
2023/06/25 07:58:01;;;;;;;5.17;4.77;;;;;;;;;;6248743;28;20104;-70
2023/06/25 08:01:01;;;;;;;5.50;5.00;;;;;;;;;;6254107;28;20294;-72
2023/06/25 08:04:01;;;;;;;6.50;5.88;;;;;;;;;;6249833;28;20021;-73
2023/06/25 08:07:02;;;;;;;5.90;5.40;;;;;;;;;;6249976;28;20469;-76
2023/06/25 08:10:02;;;;;;;5.18;4.65;;;;;;;;;;6255358;28;20094;-71
2023/06/25 08:13:03;;;;;;;5.88;5.38;;;;;;;;;;6249001;28;20462;-72
2023/06/25 08:16:03;;;;;;;5.97;5.47;;;;;;;;;;6256436;28;20306;-72
2023/06/25 08:19:03;;;;;;;6.65;6.00;;;;;;;;;;6249059;28;20364;-71
2023/06/25 08:22:04;;;;;;;7.13;6.43;;;;;;;;;;6250686;28;20044;-72
2023/06/25 08:25:17;;;;;;;6.82;6.13;;;;;;;;;;6250383;28;20036;-69
2023/06/25 08:28:18;;;;;;;5.82;5.32;;;;;;;;;;6248229;28;20090;-70
2023/06/25 08:31:18;;;;;;;5.60;5.10;;;;;;;;;;6250204;28;20025;-70
2023/06/25 08:34:18;;;;;;;5.60;5.10;;;;;;;;;;6249876;28;20283;-71
2023/06/25 08:37:19;;;;;;;4.93;4.53;;;;;;;;;;6248084;28;20108;-71
2023/06/25 08:40:21;;;;;;;5.40;4.45;;;;;;;;;;6249650;28;20405;-69
2023/06/25 08:43:22;;;;;;;4.65;4.25;;;;;;;;;;6249809;28;20026;-71
2023/06/25 08:46:24;;;;;;;4.97;4.45;;;;;;;;;;6254000;28;20110;-71
2023/06/25 08:49:25;;;;;;;5.55;5.05;;;;;;;;;;6248143;28;20167;-70
2023/06/25 08:52:26;;;;;;;6.22;5.22;;;;;;;;;;6248148;28;20394;-70
2023/06/25 08:55:26;;;;;;;5.00;4.50;;;;;;;;;;6255265;28;20115;-72
2023/06/25 08:58:28;;;;;;;5.10;4.70;;;;;;;;;;6251436;28;20107;-71
2023/06/25 09:01:29;;;;;;;5.47;4.97;;;;;;;;;;6253696;28;20021;-71
2023/06/25 09:04:29;;;;;;;7.57;6.93;;;;;;;;;;6267069;28;20055;-69
2023/06/25 09:07:32;;;;;;;6.45;5.80;;;;;;;;;;6261853;28;20261;-71
2023/06/25 09:10:36;;;;;;;5.03;4.63;;;;;;;;;;6262398;28;20057;-71
2023/06/25 09:13:37;;;;;;;5.10;4.28;;;;;;;;;;6245741;28;20021;-71
2023/06/25 09:16:47;;;;;;;5.45;4.95;;;;;;;;;;6257689;28;20107;-71
2023/06/25 09:19:47;;;;;;;4.90;4.43;;;;;;;;;;6252413;28;20286;-72
2023/06/25 09:22:55;;;;;;;4.90;4.47;;;;;;;;;;6244726;28;20025;-70
2023/06/25 09:25:56;;;;;;;4.88;4.45;;;;;;;;;;6249493;28;20017;-71
2023/06/25 09:28:59;;;;;;;7.25;6.43;;;;;;;;;;6249261;28;20478;-71
2023/06/25 09:32:05;;;;;;;5.72;5.07;;;;;;;;;;6246186;28;20483;-71
2023/06/25 09:35:06;;;;;;;5.85;5.30;;;;;;;;;;6250074;28;20025;-71
2023/06/25 09:38:06;;;;;;;6.00;5.50;;;;;;;;;;6245176;28;20391;-72
2023/06/25 09:41:07;;;;;;;5.40;5.00;;;;;;;;;;6245169;28;20496;-71
2023/06/25 09:44:07;;;;;;;5.70;5.20;;;;;;;;;;6251231;28;20470;-71
2023/06/25 09:47:10;;;;;;;6.00;5.47;;;;;;;;;;6253035;28;20021;-71
2023/06/25 09:50:14;;;;;;;5.50;5.00;;;;;;;;;;6255739;28;20131;-70
2023/06/25 09:53:18;;;;;;;5.45;4.95;;;;;;;;;;6251544;28;20530;-71
2023/06/25 09:56:20;;;;;;;5.72;5.22;;;;;;;;;;6251947;28;20025;-71
2023/06/25 09:59:21;;;;;;;5.95;5.35;;;;;;;;;;6252408;28;20112;-72
2023/06/25 10:02:21;;;;;;;6.25;5.60;;;;;;;;;;6256830;28;20418;-69
2023/06/25 10:05:21;;;;;;;5.10;4.68;;;;;;;;;;6246685;28;20183;-70
2023/06/25 10:08:22;;;;;;;6.03;5.45;;;;;;;;;;6247889;28;20036;-71
2023/06/25 10:11:22;;;;;;;5.38;4.97;;;;;;;;;;6248590;28;20436;-72
2023/06/25 10:14:23;;;;;;;5.05;4.68;;;;;;;;;;6241434;28;20018;-70
2023/06/25 10:17:23;;;;;;;5.28;4.75;;;;;;;;;;6251495;28;20040;-71
2023/06/25 10:20:34;;;;;;;4.05;3.75;;;;;;;;;;6254536;28;20071;-72
2023/06/25 10:23:36;;;;;;;4.82;4.43;;;;;;;;;;6243991;28;20025;-71
2023/06/25 10:26:36;;;;;;;4.85;4.43;;;;;;;;;;6244483;28;20100;-71
2023/06/25 10:29:40;;;;;;;6.40;4.43;;;;;;;;;;6248637;28;20346;-70
2023/06/25 10:32:42;;;;;;;5.30;4.80;;;;;;;;;;6249341;28;20037;-72
2023/06/25 10:35:43;;;;;;;5.20;4.80;;;;;;;;;;6244250;28;20915;-72
2023/06/25 10:38:44;;;;;;;5.30;4.80;;;;;;;;;;6250324;28;20467;-73
2023/06/25 10:41:48;;;;;;;5.82;5.32;;;;;;;;;;6248481;28;20044;-70
2023/06/25 10:44:48;;;;;;;5.32;4.88;;;;;;;;;;6244595;28;20147;-72
2023/06/25 10:47:49;;;;;;;5.23;4.83;;;;;;;;;;6249887;28;20033;-71
2023/06/25 10:50:51;;;;;;;7.00;6.30;;;;;;;;;;6256710;28;20496;-73
2023/06/25 10:53:55;;;;;;;5.90;5.25;;;;;;;;;;6258328;28;20028;-71
2023/06/25 10:57:05;;;;;;;6.72;6.13;;;;;;;;;;6255054;28;20129;-72
2023/06/25 11:00:06;;;;;;;5.45;4.93;;;;;;;;;;6257704;28;20074;-71
2023/06/25 11:03:06;;;;;;;5.43;4.93;;;;;;;;;;6258333;28;20043;-72
2023/06/25 11:06:06;;;;;;;5.23;4.83;;;;;;;;;;6259252;28;20032;-72
2023/06/25 11:09:07;;;;;;;5.15;4.75;;;;;;;;;;6256991;28;20295;-72
2023/06/25 11:12:07;;;;;;;5.82;5.32;;;;;;;;;;6262951;28;20025;-71
2023/06/25 11:15:08;;;;;;;6.00;5.50;;;;;;;;;;6261357;28;20474;-70
2023/06/25 11:18:08;;;;;;;5.93;5.43;;;;;;;;;;6251329;28;20025;-71
2023/06/25 11:21:08;;;;;;;5.40;5.00;;;;;;;;;;6252648;28;20025;-71
2023/06/25 11:24:09;;;;;;;6.43;5.83;;;;;;;;;;6250899;28;20112;-70
2023/06/25 11:27:10;;;;;;;6.88;6.25;;;;;;;;;;6254871;28;20349;-72
2023/06/25 11:30:10;;;;;;;5.80;5.30;;;;;;;;;;6276371;28;20082;-72
2023/06/25 11:33:16;;;;;;;6.15;4.97;;;;;;;;;;6269421;28;20032;-74
2023/06/25 11:36:16;;;;;;;6.30;5.18;;;;;;;;;;6275383;28;20032;-74
2023/06/25 11:39:17;;;;;;;6.35;5.15;;;;;;;;;;6262886;28;20545;-73
2023/06/25 11:42:19;;;;;;;5.85;5.35;;;;;;;;;;6254307;28;20484;-72
2023/06/25 11:45:20;;;;;;;5.40;5.00;;;;;;;;;;6256537;28;20025;-73
2023/06/25 11:48:21;;;;;;;5.50;5.00;;;;;;;;;;6260141;28;20066;-72
2023/06/25 11:51:21;;;;;;;5.40;4.90;;;;;;;;;;6258678;28;20017;-73
2023/06/25 11:54:22;;;;;;;4.93;4.53;;;;;;;;;;6255525;28;20556;-71
2023/06/25 11:57:22;;;;;;;5.23;4.83;;;;;;;;;;6243445;28;20949;-71
2023/06/25 12:00:23;;;;;;;5.63;5.10;;;;;;;;;;6254571;28;20486;-74
2023/06/25 12:03:24;;;;;;;5.10;4.70;;;;;;;;;;6250728;28;20267;-71
2023/06/25 12:06:25;;;;;;;6.68;6.07;;;;;;;;;;6245375;28;20068;-70
2023/06/25 12:09:25;;;;;;;5.68;5.28;;;;;;;;;;6255838;28;20021;-70
2023/06/25 12:12:25;;;;;;;5.70;5.20;;;;;;;;;;6253244;28;20501;-71
2023/06/25 12:15:26;;;;;;;5.25;4.85;;;;;;;;;;6256463;28;20067;-72
2023/06/25 12:18:26;;;;;;;5.50;5.10;;;;;;;;;;6256895;28;20047;-72
2023/06/25 12:21:27;;;;;;;5.15;4.75;;;;;;;;;;6252057;28;20259;-72
2023/06/25 12:24:27;;;;;;;5.37;4.97;;;;;;;;;;6258490;28;20503;-72
2023/06/25 12:27:29;;;;;;;5.88;5.28;;;;;;;;;;6242904;28;20025;-70
2023/06/25 12:30:29;;;;;;;6.93;5.15;;;;;;;;;;6245016;28;20039;-73
2023/06/25 12:33:30;;;;;;;5.60;4.93;;;;;;;;;;6248953;28;20315;-71
2023/06/25 12:36:30;;;;;;;5.20;4.80;;;;;;;;;;6246354;28;20032;-72
2023/06/25 12:39:30;;;;;;;5.33;4.90;;;;;;;;;;6245261;28;20020;-72
2023/06/25 12:42:31;;;;;;;6.30;5.50;;;;;;;;;;6239010;28;20051;-73
2023/06/25 12:45:31;;;;;;;5.93;5.53;;;;;;;;;;6247877;28;20025;-71
2023/06/25 12:48:31;;;;;;;5.77;5.37;;;;;;;;;;6250633;28;20315;-73
2023/06/25 12:51:35;;;;;;;6.00;5.57;;;;;;;;;;6248495;28;20405;-68
2023/06/25 12:54:35;;;;;;;6.13;5.70;;;;;;;;;;6253185;28;20111;-72
2023/06/25 12:57:35;;;;;;;5.93;5.30;;;;;;;;;;6247622;28;20452;-72
2023/06/25 13:00:36;;;;;;;5.00;4.70;;;;;;;;;;6254730;28;20013;-73
2023/06/25 13:03:36;;;;;;;5.18;4.68;;;;;;;;;;6249738;28;20329;-73
2023/06/25 13:06:37;;;;;;;5.70;5.30;;;;;;;;;;6244289;28;20064;-72
2023/06/25 13:09:37;;;;;;;5.95;5.55;;;;;;;;;;6245102;28;20125;-72
2023/06/25 13:12:38;;;;;;;5.47;5.07;;;;;;;;;;6248234;28;21112;-73
2023/06/25 13:15:38;;;;;;;5.68;5.18;;;;;;;;;;6252481;28;20028;-73
2023/06/25 13:18:40;;;;;;;5.28;4.97;;;;;;;;;;6250126;28;20028;-71
2023/06/25 13:21:41;;;;;;;5.63;5.32;;;;;;;;;;6253331;28;20395;-72
2023/06/25 13:24:44;;;;;;;6.77;6.30;;;;;;;;;;6266861;28;20059;-71
2023/06/25 13:27:44;;;;;;;5.93;5.53;;;;;;;;;;6241928;28;20283;-72
2023/06/25 13:30:46;;;;;;;5.68;5.28;;;;;;;;;;6251342;28;20040;-72
2023/06/25 13:33:46;;;;;;;5.57;5.28;;;;;;;;;;6244184;28;20028;-71
2023/06/25 13:36:46;;;;;;;5.30;5.00;;;;;;;;;;6247307;28;20117;-72
2023/06/25 13:39:49;;;;;;;5.18;4.88;;;;;;;;;;6246251;28;20498;-73
2023/06/25 13:42:49;;;;;;;5.03;4.72;;;;;;;;;;6247945;28;20428;-71
2023/06/25 13:45:50;;;;;;;5.03;4.72;;;;;;;;;;6242153;28;20307;-69
2023/06/25 13:48:50;;;;;;;4.60;4.30;;;;;;;;;;6249180;28;20064;-72
2023/06/25 13:51:51;;;;;;;5.17;4.87;;;;;;;;;;6248361;28;20029;-70
2023/06/25 13:54:51;;;;;;;5.53;5.13;;;;;;;;;;6250105;28;20025;-71
2023/06/25 13:57:51;;;;;;;5.60;5.10;;;;;;;;;;6250092;28;20760;-71
2023/06/25 14:00:52;;;;;;;5.00;4.63;;;;;;;;;;6251784;28;20025;-71
2023/06/25 14:03:52;;;;;;;5.15;4.85;;;;;;;;;;6244574;28;20029;-72
2023/06/25 14:06:53;;;;;;;5.00;4.63;;;;;;;;;;6253994;28;20020;-71
2023/06/25 14:09:53;;;;;;;5.27;4.63;;;;;;;;;;6247143;28;20474;-70
2023/06/25 14:12:53;;;;;;;5.40;5.10;;;;;;;;;;6248417;28;20068;-71
2023/06/25 14:15:54;;;;;;;6.38;5.97;;;;;;;;;;6245818;28;20025;-72
2023/06/25 14:18:54;;;;;;;5.07;4.77;;;;;;;;;;6250531;28;20064;-71
2023/06/25 14:21:54;;;;;;;5.17;4.77;;;;;;;;;;6254241;28;20272;-71
2023/06/25 14:24:58;;;;;;;5.33;5.03;;;;;;;;;;6254196;28;20637;-70
2023/06/25 14:27:58;;;;;;;6.25;5.80;;;;;;;;;;6270144;28;20035;-71
2023/06/25 14:31:03;;;;;;;5.40;4.90;;;;;;;;;;6253236;28;20033;-71
2023/06/25 14:34:03;;;;;;;5.18;4.78;;;;;;;;;;6255531;28;20445;-72
2023/06/25 14:37:04;;;;;;;5.03;4.63;;;;;;;;;;6255610;28;20074;-71
2023/06/25 14:40:04;;;;;;;5.13;4.73;;;;;;;;;;6256467;28;20028;-70
2023/06/25 14:43:05;;;;;;;5.20;4.90;;;;;;;;;;6251999;28;20427;-69
2023/06/25 14:46:05;;;;;;;6.47;5.90;;;;;;;;;;6254299;28;20454;-71
2023/06/25 14:49:05;;;;;;;5.40;5.10;;;;;;;;;;6252256;28;20029;-71
2023/06/25 14:52:06;;;;;;;5.57;5.17;;;;;;;;;;6253467;28;20028;-72
2023/06/25 14:55:06;;;;;;;5.22;4.93;;;;;;;;;;6252695;28;20429;-70
2023/06/25 14:58:07;;;;;;;5.90;5.50;;;;;;;;;;6246760;28;20450;-71
2023/06/25 15:01:07;;;;;;;4.97;4.60;;;;;;;;;;6254279;28;20021;-71
2023/06/25 15:04:07;;;;;;;4.73;4.33;;;;;;;;;;6249451;28;20291;-71
2023/06/25 15:07:07;;;;;;;3.77;3.57;;;;;;;;;;6250861;28;20028;-71
2023/06/25 15:10:08;;;;;;;3.70;3.40;;;;;;;;;;6245286;28;20020;-71
2023/06/25 15:13:09;;;;;;;3.75;3.53;;;;;;;;;;6249665;28;20280;-70
2023/06/25 15:16:09;;;;;;;3.97;3.70;;;;;;;;;;6252024;28;20025;-70
2023/06/25 15:19:09;;;;;;;4.40;4.10;;;;;;;;;;6253621;28;20036;-71
2023/06/25 15:22:10;;;;;;;4.27;3.97;;;;;;;;;;6254856;28;20047;-71
2023/06/25 15:25:10;;;;;;;3.72;3.40;;;;;;;;;;6243969;28;20029;-70
2023/06/25 15:28:10;;;;;;;4.28;3.97;;;;;;;;;;6254268;28;20036;-71
2023/06/25 15:31:11;;;;;;;4.40;4.10;;;;;;;;;;6246565;28;20048;-70
2023/06/25 15:34:11;;;;;;;4.10;3.80;;;;;;;;;;6249613;28;20025;-71
2023/06/25 15:37:12;;;;;;;4.97;4.43;;;;;;;;;;6252686;28;20167;-70
2023/06/25 15:40:12;;;;;;;4.47;4.07;;;;;;;;;;6255290;28;20053;-70
2023/06/25 15:43:12;;;;;;;4.43;4.10;;;;;;;;;;6260524;28;20091;-71
2023/06/25 15:46:13;;;;;;;4.78;4.38;;;;;;;;;;6250802;28;20041;-71
2023/06/25 15:49:13;;;;;;;4.47;4.18;;;;;;;;;;6252410;28;20554;-71
2023/06/25 15:52:14;;;;;;;5.53;4.22;;;;;;;;;;6257775;28;20017;-71
2023/06/25 15:55:15;;;;;;;4.53;4.13;;;;;;;;;;6261676;28;20017;-73
2023/06/25 15:58:16;;;;;;;4.45;4.15;;;;;;;;;;6257295;28;20265;-70
2023/06/25 16:01:16;;;;;;;4.00;3.67;;;;;;;;;;6256079;28;20025;-71
2023/06/25 16:04:17;;;;;;;4.20;3.90;;;;;;;;;;6252151;28;20029;-71
2023/06/25 16:07:17;;;;;;;4.03;3.73;;;;;;;;;;6253121;28;20021;-71
2023/06/25 16:10:17;;;;;;;4.00;3.70;;;;;;;;;;6255856;28;20267;-71
2023/06/25 16:13:18;;;;;;;4.30;3.90;;;;;;;;;;6249795;28;20047;-70
2023/06/25 16:16:18;;;;;;;3.58;3.25;;;;;;;;;;6254149;28;20020;-70
2023/06/25 16:19:18;;;;;;;4.13;3.73;;;;;;;;;;6252118;28;20509;-70
2023/06/25 16:22:19;;;;;;;4.03;3.67;;;;;;;;;;6246062;28;20295;-70
2023/06/25 16:25:19;;;;;;;4.38;3.97;;;;;;;;;;6248690;28;20509;-69
2023/06/25 16:28:20;;;;;;;4.13;3.72;;;;;;;;;;6250634;28;20037;-70
2023/06/25 16:31:20;;;;;;;5.55;3.70;;;;;;;;;;6252078;28;20020;-71
2023/06/25 16:34:21;;;;;;;4.53;4.13;;;;;;;;;;6250706;28;20028;-71
2023/06/25 16:37:21;;;;;;;4.90;4.32;;;;;;;;;;6245763;28;20354;-70
2023/06/25 16:40:22;;;;;;;4.40;3.95;;;;;;;;;;6249917;28;20159;-70
2023/06/25 16:43:22;;;;;;;4.32;3.92;;;;;;;;;;6255043;28;20087;-71
2023/06/25 16:46:22;;;;;;;5.65;5.13;;;;;;;;;;6252875;28;20052;-70
2023/06/25 16:49:23;;;;;;;4.70;4.25;;;;;;;;;;6253200;28;20144;-71
2023/06/25 16:52:23;;;;;;;4.27;3.87;;;;;;;;;;6246832;28;20032;-70
2023/06/25 16:55:24;;;;;;;6.82;3.85;;;;;;;;;;6245301;28;20267;-71
2023/06/25 16:58:24;;;;;;;4.13;3.75;;;;;;;;;;6264277;28;20111;-71
2023/06/25 17:01:25;;;;;;;4.18;3.78;;;;;;;;;;6267573;28;20089;-71
2023/06/25 17:04:25;;;;;;;4.10;3.80;;;;;;;;;;6258465;28;20044;-72
2023/06/25 17:07:26;;;;;;;9.02;3.70;;;;;;;;;;6253581;28;20025;-72
2023/06/25 17:10:27;;;;;;;5.35;3.88;;;;;;;;;;6253498;28;20044;-71
2023/06/25 17:13:28;;;;;;;4.35;3.95;;;;;;;;;;6252079;28;20063;-70
2023/06/25 17:16:28;;;;;;;4.20;3.80;;;;;;;;;;6253784;28;20572;-71
2023/06/25 17:19:28;;;;;;;3.95;3.65;;;;;;;;;;6249604;28;20506;-70
2023/06/25 17:22:29;;;;;;;4.30;3.90;;;;;;;;;;6251258;28;20059;-72
2023/06/25 17:25:29;;;;;;;3.70;3.40;;;;;;;;;;6249995;28;20033;-70
2023/06/25 17:28:30;;;;;;;4.78;3.92;;;;;;;;;;6242660;28;20032;-72
2023/06/25 17:31:31;;;;;;;5.18;3.88;;;;;;;;;;6252225;28;20020;-67
2023/06/25 17:34:31;;;;;;;3.97;3.63;;;;;;;;;;6246329;28;20027;-67
2023/06/25 17:37:31;;;;;;;3.60;3.30;;;;;;;;;;6244599;28;20040;-65
2023/06/25 17:40:31;;;;;;;4.18;3.80;;;;;;;;;;6246434;28;20276;-67
2023/06/25 17:43:32;;;;;;;3.63;3.33;;;;;;;;;;6242065;28;20048;-68
2023/06/25 17:46:34;;;;;;;4.40;4.00;;;;;;;;;;6247434;28;20108;-67
2023/06/25 17:49:34;;;;;;;4.75;3.88;;;;;;;;;;6242905;28;20124;-68
2023/06/25 17:52:34;;;;;;;3.88;3.53;;;;;;;;;;6253368;28;20419;-71
2023/06/25 17:55:35;;;;;;;4.18;3.75;;;;;;;;;;6248934;28;20016;-68
2023/06/25 17:58:35;;;;;;;5.22;3.83;;;;;;;;;;6251140;28;20033;-66
2023/06/25 18:01:35;;;;;;;3.83;3.50;;;;;;;;;;6248794;28;20029;-64
2023/06/25 18:04:39;;;;;;;3.50;3.20;;;;;;;;;;6242465;28;20671;-67
2023/06/25 18:07:39;;;;;;;4.60;3.70;;;;;;;;;;6250657;28;20059;-66
2023/06/25 18:10:40;;;;;;;4.72;3.60;;;;;;;;;;6247138;28;20013;-65